Time;durP1;ratioP1;P1;durP2;ratioP2;P2;SDS_P1;SDS_P2;PMS_P1;PMS_P2;Temp;Humidity;BMP_temperature;BMP_pressure;BME280_temperature;BME280_humidity;BME280_pressure;Samples;Min_cycle;Max_cycle;Signal;HPM_P1;HPM_P2
2024/01/18 00:00:13;;;;;;;2.42;0.90;;;8.40;97.80;;;;;;5056307;28;20644;-85
2024/01/18 00:02:40;;;;;;;1.70;0.70;;;8.40;98.00;;;;;;5056474;28;20233;-85
2024/01/18 00:05:10;;;;;;;1.75;0.75;;;8.40;98.00;;;;;;5056183;28;20585;-84
2024/01/18 00:07:37;;;;;;;2.00;0.88;;;8.40;98.20;;;;;;5055663;28;20206;-85
2024/01/18 00:10:04;;;;;;;1.80;0.80;;;8.40;98.30;;;;;;5056011;28;20669;-83
2024/01/18 00:12:31;;;;;;;1.90;0.90;;;8.40;98.40;;;;;;5056302;28;20273;-84
2024/01/18 00:14:58;;;;;;;2.03;0.85;;;8.30;98.30;;;;;;5056002;28;20215;-84
2024/01/18 00:17:25;;;;;;;1.70;0.70;;;8.30;98.20;;;;;;5055884;28;20270;-83
2024/01/18 00:19:51;;;;;;;2.00;1.00;;;8.30;98.40;;;;;;5068322;28;20261;-83
2024/01/18 00:22:20;;;;;;;2.03;0.80;;;8.30;98.30;;;;;;5076268;28;20231;-84
2024/01/18 00:24:47;;;;;;;1.90;0.70;;;8.30;98.40;;;;;;5076050;28;20269;-83
2024/01/18 00:27:13;;;;;;;1.70;0.63;;;8.30;98.60;;;;;;5074869;28;20293;-84
2024/01/18 00:29:40;;;;;;;2.20;0.98;;;8.30;98.80;;;;;;5075875;28;20273;-84
2024/01/18 00:32:07;;;;;;;1.95;0.82;;;8.30;98.70;;;;;;5075558;28;20222;-85
2024/01/18 00:34:34;;;;;;;1.95;0.77;;;8.20;98.60;;;;;;5075383;28;20197;-85
2024/01/18 00:37:02;;;;;;;1.75;0.80;;;8.20;98.80;;;;;;5075553;28;20232;-85
2024/01/18 00:39:31;;;;;;;1.90;0.85;;;8.20;98.80;;;;;;5075500;28;20221;-83
2024/01/18 00:41:57;;;;;;;2.15;0.93;;;8.20;98.80;;;;;;5074196;28;20222;-83
2024/01/18 00:44:24;;;;;;;1.80;0.90;;;8.30;99.00;;;;;;5075710;28;20269;-83
2024/01/18 00:46:53;;;;;;;1.77;0.75;;;8.30;99.00;;;;;;5068979;28;20297;-84
2024/01/18 00:49:20;;;;;;;1.80;0.70;;;8.30;98.90;;;;;;5055134;28;20214;-84
2024/01/18 00:51:47;;;;;;;1.70;0.70;;;8.30;99.00;;;;;;5055134;28;20499;-83
2024/01/18 00:54:14;;;;;;;3.00;0.80;;;8.30;98.90;;;;;;5055609;28;20277;-85
2024/01/18 00:56:42;;;;;;;2.38;0.90;;;8.30;99.00;;;;;;5055122;28;20710;-83
2024/01/18 00:59:09;;;;;;;1.90;0.90;;;8.40;99.10;;;;;;5055341;28;20222;-83
2024/01/18 01:01:36;;;;;;;1.88;0.85;;;8.30;99.10;;;;;;5054574;28;20262;-82
2024/01/18 01:04:03;;;;;;;1.80;0.80;;;8.30;99.30;;;;;;5055312;28;20289;-83
2024/01/18 01:06:30;;;;;;;1.90;0.85;;;8.30;99.00;;;;;;5055247;28;20604;-82
2024/01/18 01:08:57;;;;;;;1.80;0.80;;;8.20;99.40;;;;;;5055434;28;20538;-82
2024/01/18 01:11:23;;;;;;;1.70;0.80;;;8.20;99.20;;;;;;5054670;28;20273;-84
2024/01/18 01:13:52;;;;;;;1.70;0.70;;;8.20;99.20;;;;;;5055127;28;20607;-85
2024/01/18 01:16:20;;;;;;;1.70;0.60;;;8.20;99.50;;;;;;5054955;28;20707;-82
2024/01/18 01:18:47;;;;;;;1.80;0.80;;;8.10;99.40;;;;;;5054934;28;20183;-83
2024/01/18 01:21:14;;;;;;;3.13;0.70;;;8.10;99.60;;;;;;5054496;28;20282;-85
2024/01/18 01:23:44;;;;;;;2.13;0.85;;;8.20;99.40;;;;;;5074448;28;20225;-83
2024/01/18 01:26:10;;;;;;;2.25;0.85;;;8.20;99.30;;;;;;5074515;28;20240;-83
2024/01/18 01:28:37;;;;;;;3.50;1.00;;;8.20;99.00;;;;;;5074876;28;20273;-83
2024/01/18 01:31:06;;;;;;;2.88;0.85;;;8.20;99.00;;;;;;5067992;28;20278;-83
2024/01/18 01:33:33;;;;;;;1.83;0.80;;;8.20;99.10;;;;;;5054763;28;20191;-84
2024/01/18 01:36:00;;;;;;;1.90;0.80;;;8.20;99.50;;;;;;5054331;28;20209;-83
2024/01/18 01:38:27;;;;;;;1.80;0.80;;;8.10;99.10;;;;;;5053579;28;20278;-84
2024/01/18 01:40:54;;;;;;;2.08;0.77;;;8.20;98.80;;;;;;5054151;28;20175;-83
2024/01/18 01:43:22;;;;;;;1.70;0.60;;;8.20;98.90;;;;;;5072015;28;20276;-83
2024/01/18 01:45:49;;;;;;;1.80;0.70;;;8.20;99.10;;;;;;5074802;28;20182;-83
2024/01/18 01:48:17;;;;;;;2.97;0.85;;;8.20;98.90;;;;;;5074004;28;20301;-85
2024/01/18 01:50:45;;;;;;;2.30;0.80;;;8.10;99.00;;;;;;5056677;28;20262;-83
2024/01/18 01:53:13;;;;;;;1.90;0.70;;;8.10;99.20;;;;;;5070149;28;20276;-84
2024/01/18 01:55:42;;;;;;;1.70;0.70;;;8.10;99.30;;;;;;5074361;28;20276;-84
2024/01/18 01:58:11;;;;;;;2.97;0.98;;;8.10;99.20;;;;;;5073912;28;20348;-83
2024/01/18 02:00:38;;;;;;;2.10;0.80;;;8.10;99.20;;;;;;5071828;28;20243;-85
2024/01/18 02:03:05;;;;;;;1.70;0.65;;;8.10;98.80;;;;;;5053739;28;20704;-85
2024/01/18 02:05:34;;;;;;;2.80;0.88;;;8.20;98.60;;;;;;5054256;28;20240;-83
2024/01/18 02:08:01;;;;;;;1.70;0.70;;;8.00;98.60;;;;;;5053900;28;20305;-84
2024/01/18 02:10:28;;;;;;;1.77;0.75;;;8.00;98.60;;;;;;5053520;28;20229;-81
2024/01/18 02:12:57;;;;;;;2.00;0.75;;;7.90;98.60;;;;;;5052489;28;20273;-83
2024/01/18 02:15:24;;;;;;;1.73;0.75;;;7.90;98.70;;;;;;5071337;28;20392;-83
2024/01/18 02:17:51;;;;;;;1.83;0.90;;;7.80;98.80;;;;;;5073911;28;20293;-84
2024/01/18 02:20:18;;;;;;;1.92;0.88;;;7.80;99.00;;;;;;5073747;28;20221;-84
2024/01/18 02:22:47;;;;;;;1.70;0.70;;;7.80;99.20;;;;;;5058137;28;20265;-83
2024/01/18 02:25:21;;;;;;;2.00;0.70;;;7.70;99.30;;;;;;5073418;28;20273;-83
2024/01/18 02:27:49;;;;;;;1.80;0.75;;;7.70;99.10;;;;;;5071089;28;20225;-84
2024/01/18 02:30:15;;;;;;;1.92;0.90;;;7.70;99.00;;;;;;5071245;28;20263;-82
2024/01/18 02:32:42;;;;;;;1.92;1.10;;;7.70;98.80;;;;;;5043525;28;20282;-82
2024/01/18 02:35:10;;;;;;;2.42;1.20;;;7.80;97.70;;;;;;5069102;28;20210;-83
2024/01/18 02:37:37;;;;;;;4.15;1.30;;;7.70;97.60;;;;;;5073320;28;20280;-82
2024/01/18 02:40:06;;;;;;;2.50;1.10;;;7.60;97.20;;;;;;5073274;28;20704;-83
2024/01/18 02:42:34;;;;;;;2.55;1.23;;;7.50;96.50;;;;;;5052157;28;20595;-82
2024/01/18 02:45:03;;;;;;;2.50;1.40;;;7.40;95.90;;;;;;5052917;28;20186;-82
2024/01/18 02:47:30;;;;;;;2.05;1.13;;;7.30;95.50;;;;;;5053592;28;20207;-82
2024/01/18 02:49:58;;;;;;;3.47;1.52;;;7.20;95.70;;;;;;5053033;28;20274;-83
2024/01/18 02:52:24;;;;;;;1.95;1.10;;;7.20;95.80;;;;;;5054045;28;20185;-82
2024/01/18 02:54:51;;;;;;;2.83;1.23;;;7.10;95.80;;;;;;5073342;28;20213;-79
2024/01/18 02:57:19;;;;;;;2.40;1.30;;;7.00;95.70;;;;;;5073116;28;20277;-83
2024/01/18 02:59:48;;;;;;;2.85;1.13;;;7.00;95.60;;;;;;5073366;28;20190;-83
2024/01/18 03:02:14;;;;;;;2.40;1.00;;;6.90;95.40;;;;;;5057286;28;20182;-83
2024/01/18 03:04:42;;;;;;;3.08;1.42;;;6.90;95.30;;;;;;5055776;28;20698;-82
2024/01/18 03:07:09;;;;;;;2.75;1.25;;;6.90;95.60;;;;;;5073190;28;20292;-83
2024/01/18 03:09:37;;;;;;;3.10;2.05;;;6.80;96.00;;;;;;5073299;28;20289;-83
2024/01/18 03:12:04;;;;;;;2.33;1.23;;;6.80;95.80;;;;;;5072977;28;20642;-83
2024/01/18 03:14:32;;;;;;;2.58;1.25;;;6.70;96.00;;;;;;5057540;28;20222;-83
2024/01/18 03:17:00;;;;;;;4.93;1.25;;;6.70;96.20;;;;;;5052874;28;20605;-83
2024/01/18 03:19:27;;;;;;;2.50;1.30;;;6.60;96.30;;;;;;5053094;28;20250;-83
2024/01/18 03:21:54;;;;;;;3.10;1.30;;;6.60;96.50;;;;;;5052784;28;20281;-84
2024/01/18 03:24:21;;;;;;;2.85;1.17;;;6.60;96.30;;;;;;5052846;28;20269;-83
2024/01/18 03:26:48;;;;;;;2.60;1.23;;;6.50;96.50;;;;;;5052651;28;20282;-83
2024/01/18 03:29:15;;;;;;;3.83;1.13;;;6.50;96.60;;;;;;5053046;28;20273;-84
2024/01/18 03:31:42;;;;;;;2.33;1.05;;;6.50;96.60;;;;;;5052990;28;20189;-83
2024/01/18 03:34:10;;;;;;;3.60;1.30;;;6.40;96.60;;;;;;5052763;28;20522;-84
2024/01/18 03:36:37;;;;;;;2.97;1.40;;;6.40;96.60;;;;;;5052673;28;20277;-82
2024/01/18 03:39:06;;;;;;;3.40;1.80;;;6.40;96.70;;;;;;5052623;28;20274;-84
2024/01/18 03:41:33;;;;;;;2.90;1.45;;;6.40;96.60;;;;;;5052547;28;20193;-84
2024/01/18 03:44:00;;;;;;;2.70;1.50;;;6.40;96.80;;;;;;5052133;28;20275;-84
2024/01/18 03:46:26;;;;;;;3.47;1.20;;;6.40;96.80;;;;;;5052846;28;20590;-84
2024/01/18 03:48:53;;;;;;;2.95;1.25;;;6.40;97.00;;;;;;5052771;28;20308;-84
2024/01/18 03:51:22;;;;;;;2.55;1.10;;;6.50;97.40;;;;;;5052168;28;20226;-85
2024/01/18 03:53:49;;;;;;;3.75;1.45;;;6.50;97.50;;;;;;5052130;28;20266;-85
2024/01/18 03:56:16;;;;;;;5.13;1.20;;;6.60;97.60;;;;;;5052490;28;20660;-84
2024/01/18 03:58:43;;;;;;;4.85;1.30;;;6.60;97.60;;;;;;5064120;28;20216;-84
2024/01/18 04:01:10;;;;;;;4.90;1.52;;;6.60;97.40;;;;;;5073288;28;20191;-85
2024/01/18 04:03:37;;;;;;;2.63;1.33;;;6.60;97.00;;;;;;5075854;28;20269;-85
2024/01/18 04:06:04;;;;;;;3.10;1.20;;;6.50;96.70;;;;;;5076315;28;20182;-84
2024/01/18 04:08:33;;;;;;;2.33;1.38;;;6.50;97.00;;;;;;5075707;28;20288;-84
2024/01/18 04:11:02;;;;;;;2.25;1.20;;;6.40;97.10;;;;;;5075913;28;20196;-84
2024/01/18 04:13:29;;;;;;;3.35;1.55;;;6.40;97.20;;;;;;5076212;28;20186;-84
2024/01/18 04:15:55;;;;;;;3.35;1.50;;;6.40;97.00;;;;;;5076054;28;20671;-85
2024/01/18 04:18:22;;;;;;;5.20;2.10;;;6.40;96.90;;;;;;5061839;28;20277;-85
2024/01/18 04:20:52;;;;;;;3.25;2.00;;;6.30;96.70;;;;;;5055671;28;20187;-85
2024/01/18 04:23:20;;;;;;;3.50;2.20;;;6.30;96.70;;;;;;5055991;28;20191;-84
2024/01/18 04:25:51;;;;;;;4.63;2.67;;;6.20;96.60;;;;;;5055676;28;20187;-84
2024/01/18 04:28:18;;;;;;;2.75;1.75;;;6.10;96.60;;;;;;5055653;28;20201;-84
2024/01/18 04:30:45;;;;;;;2.80;1.60;;;6.10;96.80;;;;;;5055516;28;20214;-85
2024/01/18 04:33:12;;;;;;;2.95;1.50;;;6.20;96.60;;;;;;5055590;28;20282;-85
2024/01/18 04:35:39;;;;;;;2.63;1.38;;;6.20;96.70;;;;;;5055793;28;20244;-84
2024/01/18 04:38:07;;;;;;;2.30;1.10;;;6.20;96.90;;;;;;5055371;28;20277;-84
2024/01/18 04:40:34;;;;;;;2.83;1.10;;;6.30;97.10;;;;;;5055687;28;20592;-83
2024/01/18 04:43:03;;;;;;;2.45;1.13;;;6.20;96.90;;;;;;5055716;28;20222;-84
2024/01/18 04:45:30;;;;;;;2.50;1.15;;;6.20;96.70;;;;;;5055810;28;20191;-83
2024/01/18 04:47:57;;;;;;;2.55;1.25;;;6.10;96.60;;;;;;5055366;28;20205;-85
2024/01/18 04:50:25;;;;;;;2.63;1.23;;;6.10;96.60;;;;;;5055662;28;20273;-85
2024/01/18 04:52:52;;;;;;;2.42;1.10;;;6.00;96.90;;;;;;5054779;28;20694;-84
2024/01/18 04:55:20;;;;;;;3.08;1.30;;;6.00;97.30;;;;;;5055591;28;20221;-85
2024/01/18 04:57:50;;;;;;;2.40;1.48;;;6.00;97.70;;;;;;5054681;28;20636;-86
2024/01/18 05:00:19;;;;;;;3.72;2.22;;;6.00;97.60;;;;;;5055019;28;20277;-85
2024/01/18 05:02:46;;;;;;;5.60;2.13;;;5.90;97.60;;;;;;5066702;28;20639;-83
2024/01/18 05:05:13;;;;;;;4.22;2.38;;;6.00;97.80;;;;;;5075250;28;20592;-82
2024/01/18 05:07:41;;;;;;;4.47;2.13;;;6.00;97.80;;;;;;5075215;28;20291;-84
2024/01/18 05:10:10;;;;;;;2.67;1.48;;;6.00;97.70;;;;;;5075034;28;20632;-84
2024/01/18 05:12:38;;;;;;;3.58;1.60;;;6.00;97.90;;;;;;5061026;28;20521;-85
2024/01/18 05:15:07;;;;;;;3.15;2.05;;;6.00;98.00;;;;;;5054732;28;20672;-84
2024/01/18 05:17:36;;;;;;;5.15;2.97;;;5.90;98.10;;;;;;5055063;28;20191;-84
2024/01/18 05:20:04;;;;;;;6.93;3.13;;;5.90;98.50;;;;;;5054566;28;20183;-85
2024/01/18 05:22:31;;;;;;;5.35;2.20;;;5.90;98.50;;;;;;5054616;28;20201;-84
2024/01/18 05:24:59;;;;;;;4.00;1.38;;;5.90;98.80;;;;;;5054850;28;20225;-84
2024/01/18 05:27:27;;;;;;;3.95;1.27;;;5.90;98.80;;;;;;5054821;28;20186;-84
2024/01/18 05:29:54;;;;;;;3.97;1.52;;;5.90;98.70;;;;;;5059933;28;20272;-85
2024/01/18 05:32:22;;;;;;;2.20;1.27;;;5.90;98.10;;;;;;5074226;28;20274;-85
2024/01/18 05:34:50;;;;;;;2.88;1.50;;;5.90;98.10;;;;;;5074974;28;20253;-85
2024/01/18 05:37:17;;;;;;;3.00;2.25;;;5.80;98.10;;;;;;5074267;28;20237;-85
2024/01/18 05:39:45;;;;;;;3.10;2.17;;;5.80;98.20;;;;;;5074607;28;20185;-85
2024/01/18 05:42:12;;;;;;;4.70;1.42;;;5.80;98.20;;;;;;5064715;28;20183;-77
2024/01/18 05:44:39;;;;;;;3.70;1.70;;;5.70;98.40;;;;;;5054556;28;20282;-86
2024/01/18 05:47:06;;;;;;;4.07;1.58;;;5.80;98.70;;;;;;5054513;28;20273;-85
2024/01/18 05:49:33;;;;;;;4.38;2.30;;;5.80;98.40;;;;;;5054225;28;20297;-85
2024/01/18 05:52:03;;;;;;;3.83;1.92;;;5.80;98.20;;;;;;5053861;28;20215;-85
2024/01/18 05:54:30;;;;;;;5.00;2.90;;;5.80;98.30;;;;;;5054267;28;20198;-85
2024/01/18 05:56:57;;;;;;;6.38;2.65;;;5.80;98.50;;;;;;5053922;28;20277;-86
2024/01/18 05:59:23;;;;;;;5.10;2.67;;;5.80;98.10;;;;;;5052558;28;20290;-85
2024/01/18 06:01:50;;;;;;;3.92;2.05;;;5.80;98.30;;;;;;5055865;28;20195;-83
2024/01/18 06:04:17;;;;;;;3.65;2.08;;;5.90;98.40;;;;;;5071199;28;20285;-83
2024/01/18 06:06:44;;;;;;;3.95;2.20;;;6.00;98.00;;;;;;5059597;28;20191;-85
2024/01/18 06:09:14;;;;;;;3.38;1.85;;;6.10;97.80;;;;;;5073406;28;20306;-85
2024/01/18 06:11:41;;;;;;;2.92;1.40;;;6.10;97.70;;;;;;5059204;28;20297;-79
2024/01/18 06:14:09;;;;;;;3.85;1.50;;;6.00;97.90;;;;;;5056059;28;20499;-84
2024/01/18 06:16:36;;;;;;;6.13;2.45;;;6.10;97.80;;;;;;5064559;28;20222;-85
2024/01/18 06:19:03;;;;;;;4.60;3.20;;;6.20;97.40;;;;;;5072927;28;20277;-84
2024/01/18 06:21:30;;;;;;;5.20;2.70;;;6.10;97.30;;;;;;5054382;28;20179;-84
2024/01/18 06:23:56;;;;;;;3.90;2.15;;;6.20;97.20;;;;;;5052571;28;20191;-85
2024/01/18 06:26:26;;;;;;;3.00;1.63;;;6.10;97.10;;;;;;5052468;28;20183;-85
2024/01/18 06:28:59;;;;;;;3.08;1.73;;;6.10;97.30;;;;;;5052484;28;20210;-79
2024/01/18 06:31:27;;;;;;;2.50;1.50;;;6.10;97.30;;;;;;5050985;28;20167;-84
2024/01/18 06:33:54;;;;;;;5.32;1.98;;;6.10;96.90;;;;;;5051633;28;20626;-81
2024/01/18 06:36:23;;;;;;;3.65;2.00;;;6.20;96.90;;;;;;5056479;28;20240;-83
2024/01/18 06:39:08;;;;;;;5.28;2.20;;;6.10;96.70;;;;;;5051325;28;20240;-84
2024/01/18 06:41:37;;;;;;;2.88;1.60;;;6.10;97.10;;;;;;5062410;28;20178;-80
2024/01/18 06:44:05;;;;;;;2.55;1.63;;;6.10;97.30;;;;;;5055487;28;20518;-84
2024/01/18 06:46:32;;;;;;;2.60;1.40;;;6.00;97.30;;;;;;5060426;28;20201;-82
2024/01/18 06:56:10;;;;;;;2.80;1.40;;;6.10;97.20;;;;;;5045502;28;20200;-83
2024/01/18 06:58:39;;;;;;;3.22;1.73;;;6.00;97.20;;;;;;5071373;28;20183;-84
2024/01/18 07:05:24;;;;;;;3.75;3.00;;;6.00;97.30;;;;;;5051382;28;20225;-84
2024/01/18 07:07:52;;;;;;;9.13;4.80;;;5.90;97.50;;;;;;5056879;28;20639;-84
2024/01/18 07:10:20;;;;;;;5.93;4.45;;;5.90;97.50;;;;;;5053950;28;20273;-84
2024/01/18 07:12:47;;;;;;;10.45;3.65;;;5.90;97.60;;;;;;5070626;28;20175;-83
2024/01/18 07:15:15;;;;;;;3.97;3.33;;;5.80;97.50;;;;;;5055693;28;20246;-84
2024/01/18 07:17:43;;;;;;;6.95;4.05;;;5.80;97.60;;;;;;5043524;28;20222;-84
2024/01/18 07:20:10;;;;;;;6.82;4.70;;;5.80;97.50;;;;;;5062030;28;20209;-84
2024/01/18 07:22:37;;;;;;;10.82;7.13;;;5.80;97.40;;;;;;5068159;28;20288;-84
2024/01/18 07:25:05;;;;;;;47.55;16.35;;;5.80;97.40;;;;;;5051667;28;20265;-83
2024/01/18 07:27:33;;;;;;;8.65;5.85;;;5.80;97.20;;;;;;5051295;28;20191;-84
2024/01/18 07:30:07;;;;;;;5.32;3.92;;;5.80;96.80;;;;;;5058800;28;20206;-84
2024/01/18 07:32:35;;;;;;;4.10;3.28;;;5.80;96.60;;;;;;5040650;28;20270;-85
2024/01/18 07:35:02;;;;;;;6.50;3.08;;;5.80;96.30;;;;;;5051831;28;20190;-84
2024/01/18 07:37:29;;;;;;;4.50;3.28;;;5.80;96.00;;;;;;5054603;28;20186;-82
2024/01/18 07:39:56;;;;;;;6.43;4.40;;;5.80;95.90;;;;;;5063872;28;20595;-84
2024/01/18 07:42:23;;;;;;;5.20;3.65;;;5.80;95.60;;;;;;5055029;28;20215;-84
2024/01/18 07:44:52;;;;;;;5.68;3.72;;;5.80;95.60;;;;;;5055316;28;20190;-83
2024/01/18 07:47:20;;;;;;;5.05;3.60;;;5.80;95.70;;;;;;5062893;28;20216;-81
2024/01/18 07:49:48;;;;;;;5.93;4.88;;;5.80;95.70;;;;;;5075832;28;20241;-84
2024/01/18 07:52:15;;;;;;;6.45;3.53;;;5.80;95.60;;;;;;5074692;28;20285;-83
2024/01/18 07:54:47;;;;;;;8.30;5.60;;;5.90;95.60;;;;;;5073960;28;20347;-84
2024/01/18 07:57:14;;;;;;;6.18;4.85;;;5.90;95.60;;;;;;5074821;28;20494;-83
2024/01/18 07:59:41;;;;;;;6.47;5.10;;;5.90;95.50;;;;;;5074770;28;20278;-83
2024/01/18 08:02:08;;;;;;;7.10;4.70;;;6.00;95.50;;;;;;5075528;28;20217;-84
2024/01/18 08:04:35;;;;;;;5.70;4.93;;;6.00;95.30;;;;;;5075076;28;20273;-83
2024/01/18 08:07:04;;;;;;;9.63;6.03;;;6.00;95.20;;;;;;5075601;28;20605;-83
2024/01/18 08:09:32;;;;;;;7.18;5.45;;;6.00;95.60;;;;;;5075669;28;20304;-84
2024/01/18 08:11:59;;;;;;;7.75;5.93;;;6.00;94.70;;;;;;5075642;28;20186;-83
2024/01/18 08:14:25;;;;;;;13.73;10.40;;;6.00;94.90;;;;;;5075437;28;20277;-82
2024/01/18 08:16:52;;;;;;;16.08;9.75;;;6.10;94.60;;;;;;5075638;28;20656;-83
2024/01/18 08:19:19;;;;;;;18.65;11.50;;;6.10;94.10;;;;;;5075584;28;20232;-83
2024/01/18 08:21:46;;;;;;;17.67;11.00;;;6.10;94.10;;;;;;5075395;28;20706;-84
2024/01/18 08:24:14;;;;;;;14.73;10.18;;;6.20;94.60;;;;;;5074930;28;20273;-82
2024/01/18 08:26:43;;;;;;;15.45;9.57;;;6.30;95.00;;;;;;5075471;28;20293;-84
2024/01/18 08:29:10;;;;;;;15.63;9.35;;;6.30;95.00;;;;;;5075300;28;20241;-84
2024/01/18 08:31:37;;;;;;;9.60;6.25;;;6.50;95.30;;;;;;5074943;28;20277;-85
2024/01/18 08:34:04;;;;;;;8.77;5.30;;;6.50;94.80;;;;;;5074982;28;20272;-78
2024/01/18 08:36:31;;;;;;;7.82;4.60;;;6.70;94.80;;;;;;5075133;28;20239;-78
2024/01/18 08:38:59;;;;;;;9.82;7.50;;;6.70;94.80;;;;;;5075048;28;20221;-83
2024/01/18 08:41:27;;;;;;;12.52;9.18;;;6.70;94.70;;;;;;5074805;28;20273;-84
2024/01/18 08:43:54;;;;;;;13.25;8.05;;;6.80;94.50;;;;;;5074865;28;20218;-83
2024/01/18 08:46:21;;;;;;;10.02;8.55;;;6.80;94.20;;;;;;5074877;28;20217;-84
2024/01/18 08:48:48;;;;;;;14.85;8.50;;;6.90;94.10;;;;;;5073996;28;20288;-84
2024/01/18 08:51:17;;;;;;;10.35;8.13;;;6.90;93.60;;;;;;5074833;28;20649;-82
2024/01/18 08:53:46;;;;;;;9.90;7.65;;;7.10;93.30;;;;;;5074548;28;20643;-83
2024/01/18 08:56:14;;;;;;;8.40;7.50;;;7.40;93.00;;;;;;5074782;28;20218;-82
2024/01/18 08:58:43;;;;;;;11.85;7.38;;;7.80;92.80;;;;;;5074409;28;20627;-82
2024/01/18 09:01:10;;;;;;;10.05;7.00;;;8.10;92.00;;;;;;5074531;28;20189;-82
2024/01/18 09:03:37;;;;;;;9.27;5.18;;;8.40;91.50;;;;;;5074601;28;20273;-82
2024/01/18 09:06:04;;;;;;;7.35;5.50;;;8.70;90.30;;;;;;5074580;28;20186;-82
2024/01/18 09:08:34;;;;;;;4.65;3.50;;;8.90;88.90;;;;;;5074514;28;20578;-82
2024/01/18 09:11:01;;;;;;;7.72;5.18;;;9.30;88.10;;;;;;5074372;28;20277;-83
2024/01/18 09:13:28;;;;;;;7.70;4.50;;;9.50;85.30;;;;;;5074357;28;20225;-81
2024/01/18 09:15:56;;;;;;;6.95;4.55;;;9.40;83.20;;;;;;5073874;28;20279;-83
2024/01/18 09:18:27;;;;;;;9.50;4.93;;;9.30;84.40;;;;;;5073859;28;20222;-82
2024/01/18 09:20:55;;;;;;;15.20;5.90;;;9.40;84.80;;;;;;5073896;28;20607;-83
2024/01/18 09:23:22;;;;;;;14.85;9.55;;;9.40;83.90;;;;;;5073848;28;20659;-82
2024/01/18 09:25:50;;;;;;;15.88;9.43;;;9.30;83.70;;;;;;5074168;28;20182;-81
2024/01/18 09:28:19;;;;;;;14.70;8.27;;;9.10;83.70;;;;;;5074069;28;20193;-83
2024/01/18 09:30:47;;;;;;;9.70;6.05;;;8.90;84.40;;;;;;5073980;28;20584;-83
2024/01/18 09:33:16;;;;;;;6.95;4.80;;;8.70;84.20;;;;;;5073669;28;20186;-83
2024/01/18 09:35:47;;;;;;;6.20;4.10;;;8.60;85.20;;;;;;5073484;28;20190;-82
2024/01/18 09:38:14;;;;;;;7.75;5.82;;;8.40;86.20;;;;;;5073561;28;20615;-83
2024/01/18 09:40:41;;;;;;;8.30;6.00;;;8.30;87.50;;;;;;5073835;28;20194;-83
2024/01/18 09:43:11;;;;;;;12.55;8.50;;;8.20;88.20;;;;;;5073611;28;20194;-82
2024/01/18 09:45:41;;;;;;;11.85;8.20;;;8.20;88.80;;;;;;5073776;28;20642;-83
2024/01/18 09:48:08;;;;;;;12.80;8.10;;;8.30;89.00;;;;;;5073482;28;20662;-83
2024/01/18 09:50:44;;;;;;;16.38;12.07;;;8.30;89.10;;;;;;5073679;28;20596;-83
2024/01/18 09:53:16;;;;;;;12.82;8.00;;;8.50;89.40;;;;;;5073704;28;20273;-82
2024/01/18 09:55:45;;;;;;;10.23;6.00;;;8.70;90.00;;;;;;5073710;28;20219;-83
2024/01/18 09:58:13;;;;;;;11.10;5.18;;;9.10;90.20;;;;;;5073155;28;20251;-82
2024/01/18 10:00:44;;;;;;;4.80;3.10;;;9.40;89.20;;;;;;5072371;28;20706;-83
2024/01/18 10:03:16;;;;;;;3.70;2.40;;;9.70;88.50;;;;;;5073114;28;20179;-83
2024/01/18 10:05:45;;;;;;;4.15;2.47;;;10.20;87.80;;;;;;5072938;28;20220;-82
2024/01/18 10:08:16;;;;;;;3.55;2.35;;;11.00;86.20;;;;;;5073378;28;20187;-82
2024/01/18 10:10:45;;;;;;;3.55;2.55;;;11.60;81.70;;;;;;5072881;28;20264;-81
2024/01/18 10:13:13;;;;;;;3.63;2.03;;;12.40;81.10;;;;;;5072853;28;20649;-81
2024/01/18 10:15:41;;;;;;;2.20;1.10;;;13.20;77.90;;;;;;5072743;28;20533;-81
2024/01/18 10:18:09;;;;;;;3.20;1.10;;;13.40;70.90;;;;;;5073130;28;20432;-81
2024/01/18 10:20:37;;;;;;;3.30;1.60;;;13.40;70.90;;;;;;5073061;28;20849;-80
2024/01/18 10:23:07;;;;;;;2.80;1.53;;;13.70;71.00;;;;;;5072735;28;20435;-80
2024/01/18 10:25:35;;;;;;;2.90;1.93;;;14.40;69.40;;;;;;5073014;28;20842;-80
2024/01/18 10:28:06;;;;;;;3.23;1.37;;;15.10;67.90;;;;;;5073225;28;20436;-80
2024/01/18 10:30:36;;;;;;;3.40;1.20;;;15.80;65.70;;;;;;5073414;28;20428;-79
2024/01/18 10:33:03;;;;;;;2.30;1.20;;;16.50;61.60;;;;;;5072995;28;20445;-80
2024/01/18 10:35:35;;;;;;;2.43;1.20;;;17.10;60.50;;;;;;5072709;28;20525;-80
2024/01/18 10:38:06;;;;;;;2.40;1.30;;;17.90;57.50;;;;;;5072609;28;20500;-79
2024/01/18 10:40:36;;;;;;;2.50;1.00;;;18.60;55.20;;;;;;5072752;28;21005;-80
2024/01/18 10:43:05;;;;;;;2.60;1.03;;;18.70;53.10;;;;;;5072798;28;20790;-80
2024/01/18 10:45:32;;;;;;;2.10;0.77;;;18.60;51.50;;;;;;5072763;28;20505;-80
2024/01/18 10:48:00;;;;;;;2.00;0.90;;;18.40;51.30;;;;;;5072786;28;20431;-80
2024/01/18 10:50:31;;;;;;;2.47;1.13;;;18.20;51.30;;;;;;5072391;28;20475;-80
2024/01/18 10:52:58;;;;;;;2.93;1.50;;;18.10;50.90;;;;;;5072244;28;20476;-80
2024/01/18 10:55:27;;;;;;;2.63;1.20;;;17.90;50.20;;;;;;5072708;28;20485;-80
2024/01/18 10:57:54;;;;;;;2.73;1.20;;;17.70;50.00;;;;;;5072267;28;20468;-81
2024/01/18 11:00:21;;;;;;;3.93;1.40;;;17.40;49.50;;;;;;5072656;28;20859;-81
2024/01/18 11:02:49;;;;;;;3.33;1.60;;;17.20;49.50;;;;;;5072238;28;20441;-81
2024/01/18 11:05:21;;;;;;;3.57;1.83;;;16.90;49.90;;;;;;5072549;28;20442;-80
2024/01/18 11:07:53;;;;;;;2.40;1.23;;;16.70;50.20;;;;;;5072411;28;20903;-81
2024/01/18 11:10:21;;;;;;;3.40;1.43;;;16.40;50.30;;;;;;5072373;28;20462;-80
2024/01/18 11:12:52;;;;;;;3.03;1.80;;;16.20;51.10;;;;;;5076880;28;20469;-81
2024/01/18 11:15:20;;;;;;;4.10;2.20;;;15.90;51.60;;;;;;5076480;28;20555;-81
2024/01/18 11:17:50;;;;;;;2.90;2.03;;;15.60;52.30;;;;;;5076190;28;20925;-77
2024/01/18 11:20:20;;;;;;;5.30;2.83;;;15.20;53.10;;;;;;5076401;28;20858;-80
2024/01/18 11:22:47;;;;;;;3.50;2.00;;;14.90;54.20;;;;;;5076694;28;20557;-81
2024/01/18 11:25:20;;;;;;;6.10;3.00;;;14.70;55.20;;;;;;5076181;28;20432;-81
2024/01/18 11:27:52;;;;;;;7.17;4.03;;;14.50;55.90;;;;;;5076472;28;20896;-81
2024/01/18 11:30:36;;;;;;;3.50;2.50;;;14.40;56.60;;;;;;5076489;28;20528;-81
2024/01/18 11:33:03;;;;;;;4.40;2.30;;;14.20;57.50;;;;;;5076748;28;20429;-81
2024/01/18 11:35:32;;;;;;;3.77;1.90;;;14.20;58.10;;;;;;5075778;28;20468;-80
2024/01/18 11:38:18;;;;;;;3.53;1.33;;;14.20;58.20;;;;;;5075803;28;20440;-81
2024/01/18 11:40:57;;;;;;;2.80;1.50;;;14.10;57.40;;;;;;5075969;28;20546;-80
2024/01/18 11:43:25;;;;;;;3.80;1.20;;;13.80;57.60;;;;;;5075993;28;20470;-81
2024/01/18 11:45:56;;;;;;;3.73;1.50;;;13.60;58.30;;;;;;5075866;28;20462;-81
2024/01/18 11:48:23;;;;;;;3.20;1.30;;;13.40;59.30;;;;;;5076168;28;20505;-81
2024/01/18 11:50:52;;;;;;;4.07;1.50;;;13.30;60.20;;;;;;5075893;28;20934;-81
2024/01/18 11:53:24;;;;;;;3.17;1.87;;;13.20;60.90;;;;;;5074756;28;20431;-81
2024/01/18 11:55:52;;;;;;;5.17;1.60;;;13.10;61.70;;;;;;5075887;28;20924;-81
2024/01/18 11:58:20;;;;;;;4.13;2.33;;;13.10;62.20;;;;;;5075906;28;20861;-81
2024/01/18 12:00:56;;;;;;;6.30;3.00;;;13.10;62.60;;;;;;5075803;28;20796;-81
2024/01/18 12:03:25;;;;;;;8.70;4.43;;;13.10;63.60;;;;;;5075774;28;20428;-81
2024/01/18 12:05:53;;;;;;;8.33;3.80;;;13.10;62.80;;;;;;5075750;28;20555;-81
2024/01/18 12:08:21;;;;;;;9.50;5.03;;;13.20;62.20;;;;;;5075662;28;20432;-80
2024/01/18 12:10:51;;;;;;;7.70;3.97;;;13.20;62.30;;;;;;5075495;28;20440;-81
2024/01/18 12:13:23;;;;;;;4.27;2.73;;;13.20;62.70;;;;;;5075435;28;20446;-82
2024/01/18 12:15:56;;;;;;;5.17;2.97;;;13.10;62.60;;;;;;5074918;28;20463;-82
2024/01/18 12:18:25;;;;;;;4.77;2.27;;;13.10;63.40;;;;;;5075518;28;20557;-82
2024/01/18 12:20:53;;;;;;;4.40;2.20;;;13.10;63.60;;;;;;5075354;28;20530;-82
2024/01/18 12:23:20;;;;;;;6.40;3.00;;;13.00;64.10;;;;;;5074599;28;20462;-83
2024/01/18 12:25:48;;;;;;;3.63;1.80;;;12.90;65.20;;;;;;5075162;28;20487;-82
2024/01/18 12:28:15;;;;;;;2.40;1.10;;;12.90;65.70;;;;;;5075456;28;20439;-83
2024/01/18 12:30:48;;;;;;;5.50;2.37;;;12.80;65.70;;;;;;5075250;28;20497;-82
2024/01/18 12:33:15;;;;;;;2.50;1.50;;;12.70;66.00;;;;;;5075061;28;20424;-82
2024/01/18 12:35:46;;;;;;;2.13;0.80;;;12.70;66.60;;;;;;5075064;28;20460;-82
2024/01/18 12:38:13;;;;;;;2.20;0.80;;;12.70;67.10;;;;;;5074762;28;20428;-82
2024/01/18 12:40:40;;;;;;;1.90;0.73;;;12.60;67.10;;;;;;5074517;28;20468;-82
2024/01/18 12:43:07;;;;;;;5.40;0.87;;;12.60;67.60;;;;;;5074691;28;20914;-82
2024/01/18 12:45:34;;;;;;;2.33;1.20;;;12.60;68.40;;;;;;5074657;28;20476;-82
2024/01/18 12:48:02;;;;;;;1.83;0.70;;;12.50;69.00;;;;;;5074946;28;20432;-82
2024/01/18 12:50:30;;;;;;;1.80;0.70;;;12.50;70.10;;;;;;5075080;28;20428;-81
2024/01/18 12:53:07;;;;;;;3.33;1.40;;;12.50;70.20;;;;;;5074812;28;20816;-82
2024/01/18 12:55:35;;;;;;;2.73;1.30;;;12.40;70.40;;;;;;5075075;28;20420;-82
2024/01/18 12:58:04;;;;;;;2.40;0.90;;;12.40;70.80;;;;;;5074682;28;20434;-82
2024/01/18 13:00:41;;;;;;;2.60;1.00;;;12.30;71.00;;;;;;5074676;28;20541;-82
2024/01/18 13:03:12;;;;;;;2.77;0.90;;;12.30;71.50;;;;;;5074445;28;20939;-81
2024/01/18 13:05:45;;;;;;;2.93;1.20;;;12.30;72.00;;;;;;5074536;28;20468;-82
2024/01/18 13:08:14;;;;;;;2.20;0.90;;;12.40;72.40;;;;;;5074515;28;20473;-81